createdAt,value
2023-05-10T05:31:45.762Z,3.95
2023-05-10T05:34:47.664Z,4.25
2023-05-10T05:37:49.411Z,4.40
2023-05-10T05:40:51.033Z,4.18
2023-05-10T05:43:52.988Z,10.18
2023-05-10T05:46:54.664Z,3.85
2023-05-10T05:49:56.386Z,3.90
2023-05-10T05:52:58.306Z,4.95
2023-05-10T05:56:00.349Z,5.82
2023-05-10T05:59:02.151Z,3.10
2023-05-10T06:02:03.877Z,2.40
2023-05-10T06:05:06.208Z,2.00
2023-05-10T06:08:08.084Z,1.90
2023-05-10T06:11:09.810Z,1.90
2023-05-10T06:49:55.033Z,0.80
2023-05-10T06:52:57.762Z,1.08
2023-05-10T06:55:59.501Z,1.30
2023-05-10T06:59:01.241Z,1.30
2023-05-10T07:02:03.308Z,0.90
2023-05-10T07:05:05.437Z,1.10
2023-05-10T07:08:07.739Z,0.90
2023-05-10T07:11:10.029Z,0.80
2023-05-10T07:14:13.952Z,0.80
2023-05-10T07:17:16.375Z,1.13
2023-05-10T07:20:19.056Z,1.23
2023-05-10T07:23:21.180Z,0.85
2023-05-10T07:26:22.967Z,0.80
2023-05-10T07:29:24.862Z,1.00
2023-05-10T07:32:26.913Z,1.08
2023-05-10T07:35:28.883Z,1.30
2023-05-10T07:38:30.602Z,0.82
2023-05-10T07:41:32.584Z,1.02
2023-05-10T07:44:36.040Z,1.30
2023-05-10T07:47:37.745Z,1.10
2023-05-10T07:50:39.520Z,1.45
2023-05-10T07:53:41.509Z,1.20
2023-05-10T07:56:47.924Z,0.70
2023-05-10T07:59:49.811Z,0.60
2023-05-10T08:02:52.151Z,0.77
2023-05-10T08:05:54.670Z,0.88
2023-05-10T08:08:58.774Z,0.70
2023-05-10T08:12:01.105Z,0.60
2023-05-10T08:15:04.884Z,0.40
2023-05-10T08:18:07.753Z,0.70
2023-05-10T08:21:13.080Z,0.60
2023-05-10T08:24:18.807Z,0.90
2023-05-10T08:27:21.993Z,0.82
2023-05-10T08:30:25.776Z,0.65
2023-05-10T08:33:29.494Z,0.50
2023-05-10T08:36:33.820Z,0.65
2023-05-10T08:39:36.919Z,0.60
2023-05-10T08:42:51.501Z,1.17
2023-05-10T08:45:55.757Z,0.90
2023-05-10T08:49:04.490Z,1.37
2023-05-10T08:52:08.504Z,0.55
2023-05-10T08:55:11.272Z,0.80
2023-05-10T08:58:13.371Z,0.63
2023-05-10T09:01:17.734Z,0.70
2023-05-10T09:04:20.872Z,1.33
2023-05-10T09:07:23.073Z,0.70
2023-05-10T09:10:28.340Z,1.10
2023-05-10T09:13:31.108Z,0.70
2023-05-10T09:16:33.001Z,1.20
2023-05-10T09:19:35.166Z,0.60
2023-05-10T09:22:37.177Z,1.10
2023-05-10T09:25:39.748Z,1.60
2023-05-10T09:28:56.493Z,1.35
2023-05-10T09:31:58.236Z,0.93
2023-05-10T09:35:29.336Z,0.98
2023-05-10T09:38:47.991Z,0.80
2023-05-10T09:41:50.595Z,1.00
2023-05-10T09:44:53.883Z,0.90
2023-05-10T09:47:57.302Z,0.65
2023-05-10T09:51:00.999Z,0.88
2023-05-10T09:54:17.906Z,1.00
2023-05-10T09:57:22.961Z,0.82
2023-05-10T10:00:25.472Z,0.70
2023-05-10T10:03:30.287Z,0.90
2023-05-10T10:06:37.922Z,0.88
2023-05-10T10:09:40.068Z,0.65
2023-05-10T10:12:43.192Z,0.63
2023-05-10T10:15:46.901Z,1.10
2023-05-10T10:18:49.582Z,1.00
2023-05-10T10:21:51.863Z,0.80
2023-05-10T10:24:54.978Z,0.88
2023-05-10T10:28:23.266Z,1.25
2023-05-10T10:31:40.129Z,1.27
2023-05-10T10:34:42.438Z,1.10
2023-05-10T10:37:46.379Z,1.27
2023-05-10T10:40:48.870Z,1.48
2023-05-10T10:44:10.690Z,0.95
2023-05-10T10:47:32.653Z,1.40
2023-05-10T10:50:50.586Z,1.73
2023-05-10T10:53:52.374Z,1.10
2023-05-10T10:57:14.585Z,1.80
2023-05-10T11:00:31.969Z,1.42
2023-05-10T11:03:34.011Z,1.48
2023-05-10T11:06:37.025Z,1.40
2023-05-10T11:09:42.033Z,1.20
2023-05-10T11:13:06.569Z,1.45
2023-05-10T11:16:21.734Z,1.38
2023-05-10T11:19:29.107Z,1.08
2023-05-10T11:22:53.656Z,1.20
2023-05-10T11:25:55.878Z,0.95
2023-05-10T11:28:57.864Z,1.10
2023-05-10T11:32:00.579Z,1.20
2023-05-10T11:35:12.548Z,1.15
2023-05-10T11:38:15.214Z,1.33
2023-05-10T11:41:19.382Z,0.75
2023-05-10T11:44:21.404Z,1.00
2023-05-10T11:47:23.239Z,1.02
2023-05-10T11:50:25.858Z,0.88
2023-05-10T11:53:28.486Z,1.00
2023-05-10T11:56:33.859Z,0.90
2023-05-10T11:59:36.074Z,0.70
2023-05-10T12:02:39.083Z,0.90
2023-05-10T12:05:43.496Z,0.82
2023-05-10T12:08:47.999Z,0.70
2023-05-10T12:11:49.951Z,0.70
2023-05-10T12:14:52.474Z,0.73
2023-05-10T12:17:54.607Z,0.98
2023-05-10T12:21:04.713Z,0.90
2023-05-10T12:24:06.605Z,0.85
2023-05-10T12:30:35.237Z,1.15
2023-05-10T12:33:44.818Z,1.00
2023-05-10T12:36:46.432Z,0.90
2023-05-10T12:39:48.463Z,0.98
2023-05-10T12:42:50.545Z,1.20
2023-05-10T12:45:55.345Z,1.20
2023-05-10T12:49:07.629Z,1.63
2023-05-10T12:52:10.528Z,1.10
2023-05-10T12:55:12.369Z,0.90
2023-05-10T12:58:20.753Z,0.85
2023-05-10T13:01:33.682Z,0.70
2023-05-10T13:04:35.426Z,1.00
2023-05-10T13:07:37.177Z,0.70
2023-05-10T13:10:38.846Z,0.70
2023-05-10T13:13:40.631Z,0.88
2023-05-10T13:16:42.332Z,1.08
2023-05-10T13:19:43.940Z,1.20
2023-05-10T13:22:46.006Z,0.80
2023-05-10T13:25:48.336Z,1.00
2023-05-10T13:28:50.583Z,0.93
2023-05-10T13:31:52.462Z,0.90
2023-05-10T13:34:54.137Z,1.15
2023-05-10T13:37:58.511Z,0.95
2023-05-10T13:41:00.112Z,1.00
2023-05-10T13:44:01.982Z,0.80
2023-05-10T13:47:03.778Z,0.85
2023-05-10T13:50:05.951Z,0.70
2023-05-10T13:53:07.555Z,1.00
2023-05-10T13:56:09.403Z,0.70
2023-05-10T13:59:11.005Z,0.93
2023-05-10T14:02:14.119Z,0.68
2023-05-10T14:05:17.005Z,0.55
2023-05-10T14:08:20.171Z,0.60
2023-05-10T14:11:23.921Z,0.60
2023-05-10T14:14:26.204Z,0.82
2023-05-10T14:17:27.843Z,1.10
2023-05-10T14:20:29.990Z,0.73
2023-05-10T14:23:31.753Z,0.98
2023-05-10T14:26:34.025Z,0.90
2023-05-10T14:29:35.592Z,0.63
2023-05-10T14:32:38.146Z,0.60
2023-05-10T14:35:39.956Z,0.70
2023-05-10T14:38:42.051Z,0.65
2023-05-10T14:41:45.389Z,0.50
2023-05-10T14:44:47.269Z,0.70
2023-05-10T14:47:49.124Z,0.57
2023-05-10T14:50:51.155Z,0.75
2023-05-10T14:53:52.745Z,0.73
2023-05-10T14:56:54.594Z,0.60
2023-05-10T14:59:57.412Z,0.68
2023-05-10T15:02:59.923Z,0.80
2023-05-10T15:06:02.283Z,0.75
2023-05-10T15:09:04.443Z,0.73
2023-05-10T15:12:06.183Z,0.63
2023-05-10T15:15:08.862Z,0.90
2023-05-10T15:18:11.003Z,0.88
2023-05-10T15:21:12.682Z,0.60
2023-05-10T15:24:14.255Z,0.80
2023-05-10T15:27:16.578Z,0.57
2023-05-10T15:30:18.169Z,1.00
2023-05-10T15:33:19.786Z,0.80
2023-05-10T15:36:21.755Z,0.70
2023-05-10T15:39:23.475Z,1.20
2023-05-10T15:42:25.029Z,1.38
2023-05-10T15:45:27.421Z,0.80
2023-05-10T15:48:32.109Z,0.80
2023-05-10T15:51:35.913Z,0.73
2023-05-10T15:54:38.185Z,0.90
2023-05-10T15:57:41.370Z,0.98
